Time;durP1;ratioP1;P1;durP2;ratioP2;P2;SDS_P1;SDS_P2;PMS_P1;PMS_P2;Temp;Humidity;BMP_temperature;BMP_pressure;BME280_temperature;BME280_humidity;BME280_pressure;Samples;Min_cycle;Max_cycle;Signal;HPM_P1;HPM_P2
2022/04/06 00:01:44;;;;;;;4.40;4.10;;;;;;;;;;5053044;28;20236;-77
2022/04/06 00:04:12;;;;;;;5.53;5.03;;;;;;;;;;5053161;28;20304;-77
2022/04/06 00:06:40;;;;;;;4.60;4.20;;;;;;;;;;5052980;28;20208;-77
2022/04/06 00:09:07;;;;;;;4.77;4.33;;;;;;;;;;5052775;28;20308;-76
2022/04/06 00:11:35;;;;;;;5.23;4.73;;;;;;;;;;5053666;28;20212;-77
2022/04/06 00:14:02;;;;;;;5.00;4.60;;;;;;;;;;5052541;28;20742;-77
2022/04/06 00:16:29;;;;;;;5.10;4.70;;;;;;;;;;5052882;28;20321;-77
2022/04/06 00:18:57;;;;;;;4.77;4.37;;;;;;;;;;5052707;28;20217;-77
2022/04/06 00:21:26;;;;;;;5.03;4.63;;;;;;;;;;5052959;28;20241;-77
2022/04/06 00:23:56;;;;;;;5.20;4.80;;;;;;;;;;5052859;28;20193;-77
2022/04/06 00:26:23;;;;;;;5.83;5.33;;;;;;;;;;5052915;28;20255;-76
2022/04/06 00:28:51;;;;;;;4.97;4.57;;;;;;;;;;5052425;28;20253;-77
2022/04/06 00:31:18;;;;;;;5.73;5.17;;;;;;;;;;5053099;28;20296;-77
2022/04/06 00:33:45;;;;;;;5.40;5.00;;;;;;;;;;5052397;28;20201;-77
2022/04/06 00:36:12;;;;;;;5.70;5.30;;;;;;;;;;5052254;28;20315;-77
2022/04/06 00:38:39;;;;;;;5.07;4.67;;;;;;;;;;5052346;28;20236;-77
2022/04/06 00:41:08;;;;;;;5.47;4.97;;;;;;;;;;5053031;28;20209;-77
2022/04/06 00:43:35;;;;;;;5.47;5.07;;;;;;;;;;5052864;28;20295;-77
2022/04/06 00:46:02;;;;;;;4.93;4.60;;;;;;;;;;5052312;28;20205;-77
2022/04/06 00:48:30;;;;;;;5.13;4.73;;;;;;;;;;5052299;28;20228;-77
2022/04/06 00:50:57;;;;;;;5.60;5.20;;;;;;;;;;5052014;28;20243;-77
2022/04/06 00:53:25;;;;;;;5.10;4.60;;;;;;;;;;5053209;28;20221;-77
2022/04/06 00:55:52;;;;;;;5.00;4.60;;;;;;;;;;5049359;28;20252;-77
2022/04/06 00:58:21;;;;;;;5.50;5.10;;;;;;;;;;5052530;28;20310;-77
2022/04/06 01:00:48;;;;;;;5.20;4.70;;;;;;;;;;5047531;28;20280;-77
2022/04/06 01:03:15;;;;;;;5.23;4.80;;;;;;;;;;5054703;28;20287;-77
2022/04/06 01:05:43;;;;;;;5.07;4.50;;;;;;;;;;5051954;28;20211;-77
2022/04/06 01:08:11;;;;;;;5.07;4.57;;;;;;;;;;5052196;28;20201;-77
2022/04/06 01:10:39;;;;;;;4.90;4.50;;;;;;;;;;5051713;28;20201;-77
2022/04/06 01:13:06;;;;;;;5.10;4.70;;;;;;;;;;5051748;28;20229;-77
2022/04/06 01:15:34;;;;;;;4.40;4.10;;;;;;;;;;5051585;28;20221;-77
2022/04/06 01:18:02;;;;;;;4.80;4.40;;;;;;;;;;5051630;28;20560;-77
2022/04/06 01:20:30;;;;;;;4.73;4.33;;;;;;;;;;5051918;28;20201;-77
2022/04/06 01:22:58;;;;;;;5.00;4.60;;;;;;;;;;5051547;28;20216;-77
2022/04/06 01:25:26;;;;;;;4.60;4.20;;;;;;;;;;5051532;28;20201;-77
2022/04/06 01:27:53;;;;;;;5.13;4.30;;;;;;;;;;5051405;28;20205;-77
2022/04/06 01:30:20;;;;;;;5.70;4.80;;;;;;;;;;5054552;28;20224;-77
2022/04/06 01:32:47;;;;;;;5.33;4.93;;;;;;;;;;5051622;28;20209;-77
2022/04/06 01:35:15;;;;;;;4.93;4.53;;;;;;;;;;5051228;28;20221;-77
2022/04/06 01:37:43;;;;;;;5.17;4.77;;;;;;;;;;5051700;28;20208;-77
2022/04/06 01:40:12;;;;;;;4.70;4.30;;;;;;;;;;5051184;28;20256;-77
2022/04/06 01:42:39;;;;;;;5.80;5.30;;;;;;;;;;5051113;28;20206;-77
2022/04/06 01:45:07;;;;;;;5.30;4.80;;;;;;;;;;5051165;28;20205;-76
2022/04/06 01:47:34;;;;;;;5.30;4.90;;;;;;;;;;5051141;28;20204;-77
2022/04/06 01:52:46;;;;;;;5.80;5.20;;;;;;;;;;5051368;28;20208;-77
2022/04/06 01:55:16;;;;;;;5.60;5.17;;;;;;;;;;5050829;28;20316;-77
2022/04/06 01:57:43;;;;;;;5.53;5.13;;;;;;;;;;5051160;28;20297;-77
2022/04/06 02:00:12;;;;;;;5.70;5.20;;;;;;;;;;5051401;28;20286;-77
2022/04/06 02:02:40;;;;;;;6.27;5.67;;;;;;;;;;5051122;28;20284;-77
2022/04/06 02:05:08;;;;;;;5.87;5.30;;;;;;;;;;5050837;28;20280;-77
2022/04/06 02:07:35;;;;;;;7.77;7.07;;;;;;;;;;5050956;28;20201;-77
2022/04/06 02:10:02;;;;;;;6.50;6.00;;;;;;;;;;5051451;28;20763;-77
2022/04/06 02:12:31;;;;;;;8.20;7.40;;;;;;;;;;5051080;28;20205;-77
2022/04/06 02:14:58;;;;;;;6.07;5.47;;;;;;;;;;5050820;28;20295;-77
2022/04/06 02:17:27;;;;;;;5.97;5.47;;;;;;;;;;5050907;28;20296;-77
2022/04/06 02:19:54;;;;;;;5.67;5.20;;;;;;;;;;5050840;28;20252;-77
2022/04/06 02:22:22;;;;;;;6.97;6.27;;;;;;;;;;5050503;28;20215;-77
2022/04/06 02:24:49;;;;;;;6.73;6.13;;;;;;;;;;5050616;28;20205;-77
2022/04/06 02:27:16;;;;;;;8.23;7.43;;;;;;;;;;5050857;28;20196;-77
2022/04/06 02:29:45;;;;;;;6.10;5.60;;;;;;;;;;5050774;28;20244;-77
2022/04/06 02:32:12;;;;;;;7.03;6.40;;;;;;;;;;5050664;28;20282;-77
2022/04/06 02:34:40;;;;;;;6.77;6.17;;;;;;;;;;5050466;28;20201;-77
2022/04/06 02:37:07;;;;;;;7.83;6.03;;;;;;;;;;5050418;28;20228;-77
2022/04/06 02:39:34;;;;;;;6.47;5.87;;;;;;;;;;5050440;28;20235;-77
2022/04/06 02:42:02;;;;;;;6.50;5.90;;;;;;;;;;5050488;28;20555;-77
2022/04/06 02:44:29;;;;;;;7.30;6.60;;;;;;;;;;5050590;28;20287;-77
2022/04/06 02:46:57;;;;;;;6.47;5.87;;;;;;;;;;5050354;28;20221;-77
2022/04/06 02:49:25;;;;;;;6.20;5.70;;;;;;;;;;5050407;28;20231;-77
2022/04/06 02:51:52;;;;;;;6.93;6.03;;;;;;;;;;5050514;28;20198;-77
2022/04/06 02:54:19;;;;;;;6.70;6.10;;;;;;;;;;5050890;28;20277;-76
2022/04/06 02:56:46;;;;;;;6.83;6.20;;;;;;;;;;5050238;28;20224;-77
2022/04/06 02:59:14;;;;;;;6.93;6.33;;;;;;;;;;5050557;28;20316;-76
2022/04/06 03:01:41;;;;;;;6.20;5.60;;;;;;;;;;5050332;28;20211;-77
2022/04/06 03:04:10;;;;;;;6.43;5.83;;;;;;;;;;5050315;28;20201;-77
2022/04/06 03:06:37;;;;;;;5.40;5.00;;;;;;;;;;5050172;28;20221;-76
2022/04/06 03:09:04;;;;;;;5.60;5.10;;;;;;;;;;5050535;28;20243;-77
2022/04/06 03:11:32;;;;;;;6.27;5.70;;;;;;;;;;5050529;28;20247;-77
2022/04/06 03:13:59;;;;;;;5.83;5.33;;;;;;;;;;5050391;28;20207;-77
2022/04/06 03:16:26;;;;;;;5.00;4.60;;;;;;;;;;5049986;28;20252;-77
2022/04/06 03:18:53;;;;;;;6.20;5.70;;;;;;;;;;5050034;28;20282;-77
2022/04/06 03:21:22;;;;;;;6.47;5.20;;;;;;;;;;5050368;28;20291;-77
2022/04/06 03:23:49;;;;;;;5.47;4.97;;;;;;;;;;5050097;28;20301;-77
2022/04/06 03:26:16;;;;;;;5.30;4.90;;;;;;;;;;5049966;28;20233;-77
2022/04/06 03:28:44;;;;;;;5.83;5.33;;;;;;;;;;5051004;28;20304;-77
2022/04/06 03:31:11;;;;;;;6.70;5.30;;;;;;;;;;5053892;28;20296;-77
2022/04/06 03:33:38;;;;;;;5.73;5.23;;;;;;;;;;5053686;28;20197;-77
2022/04/06 03:36:05;;;;;;;5.43;4.87;;;;;;;;;;5053745;28;20316;-77
2022/04/06 03:38:34;;;;;;;5.37;4.87;;;;;;;;;;5069836;22;20292;-80
2022/04/06 03:41:02;;;;;;;5.43;5.03;;;;;;;;;;5051871;28;20212;-80
2022/04/06 03:43:30;;;;;;;6.07;5.47;;;;;;;;;;5053602;28;20193;-78
2022/04/06 03:45:57;;;;;;;5.63;5.13;;;;;;;;;;5050800;28;20217;-78
2022/04/06 03:48:25;;;;;;;6.60;5.30;;;;;;;;;;5050106;28;20392;-79
2022/04/06 03:50:52;;;;;;;5.67;4.93;;;;;;;;;;5060043;28;20739;-79
2022/04/06 03:53:20;;;;;;;6.00;5.40;;;;;;;;;;5054323;28;20205;-78
2022/04/06 03:55:48;;;;;;;5.67;5.17;;;;;;;;;;5051377;28;20201;-78
2022/04/06 03:58:15;;;;;;;5.87;5.27;;;;;;;;;;5048420;28;20288;-78
2022/04/06 04:00:45;;;;;;;5.43;4.90;;;;;;;;;;5052491;28;20293;-78
2022/04/06 04:03:13;;;;;;;6.43;4.80;;;;;;;;;;5052964;28;20216;-78
2022/04/06 04:05:40;;;;;;;5.30;4.80;;;;;;;;;;5055473;28;20236;-78
2022/04/06 04:08:08;;;;;;;6.60;5.10;;;;;;;;;;5051117;28;20284;-78
2022/04/06 04:10:35;;;;;;;5.20;4.77;;;;;;;;;;5053562;28;20236;-79
2022/04/06 04:13:03;;;;;;;6.17;5.03;;;;;;;;;;5053321;28;20300;-78
2022/04/06 04:15:31;;;;;;;5.60;5.10;;;;;;;;;;5053132;28;20220;-79
2022/04/06 04:17:59;;;;;;;5.23;4.70;;;;;;;;;;5053045;28;20256;-79
2022/04/06 04:20:26;;;;;;;5.90;5.40;;;;;;;;;;5053051;28;20245;-78
2022/04/06 04:22:53;;;;;;;5.93;5.43;;;;;;;;;;5053170;28;20198;-78
2022/04/06 04:25:21;;;;;;;5.97;5.20;;;;;;;;;;5053478;28;20255;-78
2022/04/06 04:27:48;;;;;;;6.43;5.17;;;;;;;;;;5052511;28;20278;-78
2022/04/06 04:30:17;;;;;;;5.50;5.10;;;;;;;;;;5052889;28;20237;-79
2022/04/06 04:32:44;;;;;;;5.90;5.43;;;;;;;;;;5047456;28;20226;-78
2022/04/06 04:35:11;;;;;;;5.37;4.97;;;;;;;;;;5052523;28;20294;-81
2022/04/06 04:37:39;;;;;;;5.37;4.90;;;;;;;;;;5054572;28;20275;-80
2022/04/06 04:40:07;;;;;;;5.77;5.27;;;;;;;;;;5052507;28;20355;-81
2022/04/06 04:42:35;;;;;;;6.50;4.80;;;;;;;;;;5054320;28;20201;-79
2022/04/06 04:45:03;;;;;;;5.50;5.00;;;;;;;;;;5051244;28;20731;-79
2022/04/06 04:47:32;;;;;;;5.33;4.93;;;;;;;;;;5050052;28;20288;-79
2022/04/06 04:50:00;;;;;;;5.30;4.90;;;;;;;;;;5054125;28;20283;-79
